MyFlightRoute - Storm Chaser


To sort multiple columns, hold SHIFT key while clicking column header

ICAOVisibilityWindSpeedGustCeilingWeatherTempDew PointSpreadFlight CategoryMETAR
KABQ10.005 11.10-7.8018.9VFRKABQ 161652Z 33005KT 10SM CLR 11/M08 A3045 RMK AO2 SLP281 T01111078
KAMA8.0013 17.20-1.1018.3VFRKAMA 161653Z 21013KT 8SM CLR 17/M01 A3042 RMK AO2 SLP282 T01721011
KAPA10.006 15.60-8.3023.9VFRKAPA 161653Z 15006KT 10SM CLR 16/M08 A3036 RMK AO2 SLP265 T01561083
KASE10.007 4.40-6.1010.5VFRKASE 161653Z 35007KT 10SM CLR 04/M06 A3050 RMK AO2 SLP303 T00441061
KBFI10.008 600014.408.905.5VFRKBFI 161653Z 15008KT 10SM FEW040 OVC060 14/09 A3000 RMK AO2 SLP158 T01440089
KBFL5.003 HAZE 17.801.7016.1MVFRKBFL 161654Z 14003KT 5SM HZ CLR 18/02 A3006 RMK AO2 SLP175 T01780017
KBIL10.001825 13.30-2.2015.5VFRKBIL 161653Z 23018G25KT 10SM FEW140 FEW250 13/M02 A3021 RMK AO2 SLP227 T01331022
KBOI10.005 11.70-1.1012.8VFRKBOI 161653Z 11005KT 10SM CLR 12/M01 A3028 RMK AO2 SLP252 T01171011
KBUR10.000 23.30-11.1034.4VFRKBUR 161653Z 00000KT 10SM CLR 23/M11 A3005 RMK AO2 SLP145 T02331111 $
KBZN10.006 10.601.109.5VFRKBZN 161656Z 16006KT 10SM CLR 11/01 A3028 RMK AO2 SLP257 T01060011
KCMA10.00818 30.60-10.6041.2VFRKCMA 161655Z 09008G18KT 10SM CLR 31/M11 A3000 RMK AO2 SLP165 T03061106
KCNO10.000 24.40-3.3027.7VFRKCNO 161653Z 00000KT 10SM CLR 24/M03 A3004 RMK AO2 SLP168 T02441033
KCOS10.007 13.90-9.4023.3VFRKCOS 161654Z 17007KT 10SM CLR 14/M09 A3042 RMK AO2 SLP279 T01391094
KCPR10.0014 8.30-2.8011.1VFRKCPR 161653Z 21014KT 10SM CLR 08/M03 A3035 RMK AO2 SLP269 T00831028
KCRQ10.000 25.00-2.2027.2VFRKCRQ 161653Z 00000KT 10SM CLR 25/M02 A3000 RMK AO2 SLP155 T02501022
KDEN10.004 16.70-9.4026.1VFRKDEN 161653Z VRB04KT 10SM CLR 17/M09 A3036 RMK AO2 SLP253 T01671094
KEGE10.000 3.30-7.2010.5VFRKEGE 161656Z 00000KT 10SM CLR 03/M07 A3058 RMK AO2 SLP386 T00331072
KELP10.0010 18.30-2.2020.5VFRKELP 161651Z 09010KT 10SM FEW250 18/M02 A3038 RMK AO2 SLP243 T01831022
KEMT10.000 23.00-3.0026VFRKEMT 161645Z 00000KT 10SM CLR 23/M03 A3003
KEUG10.005 10.008.901.1VFRKEUG 161654Z 23005KT 10SM FEW001 SCT260 10/09 A3008 RMK AO2 SLP186 VIS LWR W-NW BR FEW001 T01000089
KFAT7.000 17.205.6011.6VFRKFAT 161653Z 00000KT 7SM CLR 17/06 A3006 RMK AO2 SLP178 T01720056 $
KFLG10.0011 9.40-7.8017.2VFRKFLG 161657Z 06011KT 10SM CLR 09/M08 A3040 RMK AO2 SLP247 T00941078
KFMN10.007 9.40-4.4013.8VFRKFMN 161653Z 13007KT 10SM CLR 09/M04 A3044 RMK AO2 SLP305 T00941044
KFUL10.000 28.90-6.1035VFRKFUL 161653Z 00000KT 10SM CLR 29/M06 A2999 RMK AO2 SLP155 T02891061
KGCN10.001622 10.60-8.9019.5VFRKGCN 161654Z 05016G22KT 10SM CLR 11/M09 A3041 RMK AO2 SLP254 T01061089
KGEG10.000 2000010.603.307.3VFRKGEG 161653Z 00000KT 10SM FEW120 BKN200 11/03 A3012 RMK AO2 SLP202 T01060033
KGJT10.009 9.40-2.8012.2VFRKGJT 161653Z 15009KT 10SM CLR 09/M03 A3047 RMK AO2 SLP309 T00941028
KGPI10.000 8.903.305.6VFRKGPI 161655Z 00000KT 10SM CLR 09/03 A3015 RMK AO2 SLP217 T00890033
KHHR10.003 25.00-5.0030VFRKHHR 161653Z VRB03KT 10SM CLR 25/M05 A3001 RMK AO2 SLP162 T02501050 $
KHLN10.003 12.800.0012.8VFRKHLN 161653Z 25003KT 10SM CLR 13/00 A3019 RMK AO2 SLP234 T01280000
KHND10.004 17.80-5.6023.4VFRKHND 161656Z 30004KT 10SM CLR 18/M06 A3025 RMK AO2 SLP253 T01781056
KIFP10.0022 22.00-4.0026VFRKIFP 161650Z 36022KT 10SM CLR 22/M04 A3011
KINS10.000 15.60-3.8019.4VFRKINS 161658Z AUTO 00000KT 10SM CLR 16/M04 A3024 RMK AO2 SLP218 T01561038 $
KJAC10.004 2.80-3.906.7VFRKJAC 161656Z VRB04KT 10SM CLR 03/M04 A3047 RMK AO2 SLP346 T00281039
KLAS10.003 18.90-6.7025.6VFRKLAS 161656Z 02003KT 10SM CLR 19/M07 A3023 RMK AO2 SLP226 T01891067
KLAX10.004 25.00-5.0030VFRKLAX 161653Z VRB04KT 10SM CLR 25/M05 A3001 RMK AO2 SLP160 T02501050
KLGB10.000 23.90-1.7025.6VFRKLGB 161653Z 00000KT 10SM CLR 24/M02 A3001 RMK AO2 SLP161 T02391017
KLSV10.0013 20.00-6.6026.6VFRKLSV 161658Z AUTO 06013KT 10SM CLR 20/M07 A3021 RMK AO2 SLP219 T02001066 $
KMFR10.000 8.903.305.6VFRKMFR 161653Z 00000KT 10SM CLR 09/03 A3011 RMK AO2 SLP196 T00890033
KMHV10.000 18.00-11.0029VFRKMHV 161700Z AUTO 00000KT 10SM CLR 18/M11 A3019 RMK A01
KMRY10.003 24.401.7022.7VFRKMRY 161654Z 29003KT 10SM CLR 24/02 A3001 RMK AO2 SLP172 T02440017
KMSO10.000 8.300.607.7VFRKMSO 161653Z 00000KT 10SM CLR 08/01 A3021 RMK AO2 SLP241 T00830006
KMYF10.000 26.10-4.4030.5VFRKMYF 161653Z 00000KT 10SM CLR 26/M04 A3001 RMK AO2 SLP157 T02611044
KNYL10.009 25.60-3.9029.5VFRKNYL 161657Z AUTO 36009KT 10SM CLR 26/M04 A3001 RMK AO2 SLP161 T02561039
KOAK10.005 17.8010.007.8VFRKOAK 161653Z 19005KT 10SM CLR 18/10 A3004 RMK AO2 SLP171 T01780100
KOLM10.009 750013.307.805.5VFRKOLM 161654Z 21009KT 10SM SCT035 BKN075 13/08 A3001 RMK AO2 SLP164 T01330078
KONT10.005 23.90-7.2031.1VFRKONT 161653Z 29005KT 10SM CLR 24/M07 A3004 RMK AO2 SLP157 T02391072
KOTH10.0010 11.709.402.3VFRKOTH 161656Z 15010KT 10SM CLR 12/09 A3007 RMK AO2 SLP183 T01170094
KOXR10.0010 28.30-6.1034.4VFRKOXR 161651Z 09010KT 10SM CLR 28/M06 A2999 RMK AO2 SLP155 T02831061
KPAE10.001322 310013.907.806.1VFRKPAE 161653Z 15013G22KT 10SM BKN031 OVC075 14/08 A2999 RMK AO2 SLP155 T01390078
KPDX10.000 11.708.303.4VFRKPDX 161653Z 00000KT 10SM FEW030 SCT250 12/08 A3009 RMK AO2 SLP187 T01170083
KPHX10.0013 26.10-5.6031.7VFRKPHX 161651Z 07013KT 10SM FEW250 26/M06 A3005 RMK AO2 SLP160 T02611056
KPOC10.004 20.00-6.0026VFRKPOC 161547Z 11004KT 10SM CLR 20/M06 A3006
KPRC10.004 13.90-5.0018.9VFRKPRC 161653Z 36004KT 10SM CLR 14/M05 A3029 RMK AO2 SLP220 T01391050
KPSC10.000 12.206.106.1VFRKPSC 161653Z 00000KT 10SM CLR 12/06 A3009 RMK AO2 SLP191 T01220061
KPSP10.003 26.70-6.1032.8VFRKPSP 161653Z VRB03KT 10SM CLR 27/M06 A3008 RMK AO2 SLP183 T02671061
KRAL10.005 24.40-6.1030.5VFRKRAL 161653Z 06005KT 10SM CLR 24/M06 A3004 RMK AO2 SLP158 T02441061
KRDD10.000 15.00-1.1016.1VFRKRDD 161653Z 00000KT 10SM CLR 15/M01 A3005 RMK AO2 SLP173 T01501011
KRIV10.006 25.001.0024VFRKRIV 161658Z 01006KT 10SM CLR 25/01 A3005 RMK AO2A SLPNO ALSTG ESTMD
KRNM10.005 25.60-6.1031.7VFRKRNM 161653Z 11005KT 10SM CLR 26/M06 A3004 RMK AO2 SLP156 T02561061
KRNO10.000 7.80-3.9011.7VFRKRNO 161655Z 00000KT 10SM FEW220 08/M04 A3026 RMK AO2 SLP233 T00781039
KSAC10.004 17.203.3013.9VFRKSAC 161653Z 35004KT 10SM CLR 17/03 A3005 RMK AO2 SLP175 T01720033
KSAN10.000 24.400.6023.8VFRKSAN 161651Z 00000KT 10SM FEW250 24/01 A3001 RMK AO2 SLP162 T02440006
KSBA10.004 22.80-0.6023.4VFRKSBA 161653Z 13004KT 10SM CLR 23/M01 A2999 RMK AO2 SLP156 T02281006 $
KSBD10.000 21.00-6.0027VFRKSBD 161552Z 00000KT 10SM CLR 21/M06 A3007
KSBP10.000 24.40-1.7026.1VFRKSBP 161656Z 00000KT 10SM CLR 24/M02 A3000 RMK AO2 SLP156 T02441017
KSDM10.004 27.80-8.3036.1VFRKSDM 161653Z COR VRB04KT 10SM CLR 28/M08 A3001 RMK AO2 SLP156 T02781083
KSEA10.005 500015.007.207.8VFRKSEA 161653Z 18005KT 10SM FEW035 BKN050 OVC160 15/07 A3000 RMK AO2 SLP164 T01500072
KSEE10.000 18.00-1.0019VFRKSEE 161647Z 00000KT 10SM SKC 18/M01 A3003
KSFO10.003 17.8011.106.7VFRKSFO 161656Z 05003KT 10SM FEW200 18/11 A3003 RMK AO2 SLP168 T01780111
KSJC10.000 18.303.9014.4VFRKSJC 161657Z 00000KT 10SM FEW005 FEW100 18/04 A3003 RMK AO2 FU FEW005 T01830039
KSLC10.000 9.40-2.2011.6VFRKSLC 161654Z 00000KT 10SM CLR 09/M02 A3040 RMK AO2 SLP285 T00941022
KSMF10.005 15.602.8012.8VFRKSMF 161653Z 34005KT 10SM CLR 16/03 A3004 RMK AO2 SLP173 T01560028
KSMO10.005 25.00-4.4029.4VFRKSMO 161651Z 05005KT 10SM CLR 25/M04 A3002 RMK AO2 SLP162 T02501044 $
KSMX10.003 22.20-6.1028.3VFRKSMX 161651Z 07003KT 10SM CLR 22/M06 A3001 RMK AO2 SLP163 T02221061
KSNA10.000 25.00-1.7026.7VFRKSNA 161653Z 00000KT 10SM CLR 25/M02 A3000 RMK AO2 SLP158 T02501017
KSUN10.006 4.00-2.006VFRKSUN 161555Z 32006KT 10SM CLR 04/M02 A3042
KTOA10.000 26.00-4.0030VFRKTOA 161655Z 00000KT 10SM SKC 26/M04 A3001
KTPH10.000 12.20-16.1028.3VFRKTPH 161656Z AUTO 00000KT 10SM CLR 12/M16 A3031 RMK AO2 SLP243 T01221161
KTUS10.001825 25.60-5.0030.6VFRKTUS 161653Z 12018G25KT 10SM CLR 26/M05 A3012 RMK AO2 PK WND 13030/1612 SLP160 T02561050 $
KVCV10.000 18.00-10.0028VFRKVCV 161645Z AUTO 00000KT 10SM CLR 18/M10 A3020
KVGT10.003 18.90-6.1025VFRKVGT 161653Z 14003KT 10SM CLR 19/M06 A3021 RMK AO2 SLP237 T01891061
KVNY10.000 25.00-8.9033.9VFRKVNY 161651Z 00000KT 10SM CLR 25/M09 A3003 RMK AO2 SLP159 T02501089
KWHP10.008 24.00-12.0036VFRKWHP 161655Z 30008KT 10SM SKC 24/M12 A3007
KWJF10.000 14.40-12.2026.6VFRKWJF 161656Z 00000KT 10SM CLR 14/M12 A3018 RMK AO2 SLP221 T01441122
KYKM10.004 9.403.306.1VFRKYKM 161653Z 28004KT 10SM CLR 09/03 A3009 RMK AO2 SLP194 T00940033